sensor_id;sensor_type;location;lat;lon;timestamp;pressure;altitude;pressure_sealevel;temperature;humidity
43503;BME280;29098;48.184;16.298;2023-02-28T00:00:03;100364.13;;;0.89;63.94
43503;BME280;29098;48.184;16.298;2023-02-28T00:02:38;100365.22;;;0.99;63.15
43503;BME280;29098;48.184;16.298;2023-02-28T00:05:04;100367.44;;;0.91;63.71
43503;BME280;29098;48.184;16.298;2023-02-28T00:07:30;100364.34;;;0.99;63.30
43503;BME280;29098;48.184;16.298;2023-02-28T00:09:56;100369.56;;;0.84;63.56
43503;BME280;29098;48.184;16.298;2023-02-28T00:12:21;100367.16;;;0.81;64.37
43503;BME280;29098;48.184;16.298;2023-02-28T00:14:47;100369.66;;;0.82;64.08
43503;BME280;29098;48.184;16.298;2023-02-28T00:17:12;100362.25;;;0.76;63.95
43503;BME280;29098;48.184;16.298;2023-02-28T00:19:37;100365.88;;;0.74;63.96
43503;BME280;29098;48.184;16.298;2023-02-28T00:22:03;100373.28;;;0.65;64.44
43503;BME280;29098;48.184;16.298;2023-02-28T00:24:28;100368.19;;;0.78;63.55
43503;BME280;29098;48.184;16.298;2023-02-28T00:26:54;100368.75;;;0.69;63.86
43503;BME280;29098;48.184;16.298;2023-02-28T00:29:19;100373.00;;;0.70;64.03
43503;BME280;29098;48.184;16.298;2023-02-28T00:31:44;100378.28;;;0.68;63.92
43503;BME280;29098;48.184;16.298;2023-02-28T00:34:10;100373.94;;;0.69;63.92
43503;BME280;29098;48.184;16.298;2023-02-28T00:36:35;100370.97;;;0.61;64.90
43503;BME280;29098;48.184;16.298;2023-02-28T00:39:00;100371.69;;;0.77;64.25
43503;BME280;29098;48.184;16.298;2023-02-28T00:41:26;100371.41;;;0.67;63.78
43503;BME280;29098;48.184;16.298;2023-02-28T00:43:51;100380.41;;;0.62;64.01
43503;BME280;29098;48.184;16.298;2023-02-28T00:46:16;100382.00;;;0.64;64.19
43503;BME280;29098;48.184;16.298;2023-02-28T00:48:42;100373.06;;;0.68;64.28
43503;BME280;29098;48.184;16.298;2023-02-28T00:51:07;100368.28;;;0.62;64.36
43503;BME280;29098;48.184;16.298;2023-02-28T00:53:32;100371.13;;;0.58;64.46
43503;BME280;29098;48.184;16.298;2023-02-28T00:55:58;100369.94;;;0.63;64.48
43503;BME280;29098;48.184;16.298;2023-02-28T00:58:23;100372.44;;;0.65;64.21
43503;BME280;29098;48.184;16.298;2023-02-28T01:00:49;100363.75;;;0.66;64.58
43503;BME280;29098;48.184;16.298;2023-02-28T01:03:16;100372.34;;;0.66;64.78
43503;BME280;29098;48.184;16.298;2023-02-28T01:05:42;100368.72;;;0.54;64.39
43503;BME280;29098;48.184;16.298;2023-02-28T01:08:07;100365.94;;;0.58;64.21
43503;BME280;29098;48.184;16.298;2023-02-28T01:10:32;100372.81;;;0.59;64.25
43503;BME280;29098;48.184;16.298;2023-02-28T01:12:58;100369.47;;;0.57;64.49
43503;BME280;29098;48.184;16.298;2023-02-28T01:15:23;100365.56;;;0.64;63.49
43503;BME280;29098;48.184;16.298;2023-02-28T01:17:49;100366.69;;;0.60;63.27
43503;BME280;29098;48.184;16.298;2023-02-28T01:20:14;100372.44;;;0.50;63.82
43503;BME280;29098;48.184;16.298;2023-02-28T01:22:39;100373.91;;;0.54;63.79
43503;BME280;29098;48.184;16.298;2023-02-28T01:25:05;100370.66;;;0.51;64.50
43503;BME280;29098;48.184;16.298;2023-02-28T01:27:30;100368.66;;;0.56;63.75
43503;BME280;29098;48.184;16.298;2023-02-28T01:29:55;100374.66;;;0.57;63.50
43503;BME280;29098;48.184;16.298;2023-02-28T01:32:21;100371.88;;;0.60;63.60
43503;BME280;29098;48.184;16.298;2023-02-28T01:34:46;100378.75;;;0.61;63.79
43503;BME280;29098;48.184;16.298;2023-02-28T01:37:11;100376.31;;;0.58;63.65
43503;BME280;29098;48.184;16.298;2023-02-28T01:39:37;100377.91;;;0.60;63.58
43503;BME280;29098;48.184;16.298;2023-02-28T01:42:02;100379.94;;;0.55;63.88
43503;BME280;29098;48.184;16.298;2023-02-28T01:47:11;100373.84;;;0.71;64.19
43503;BME280;29098;48.184;16.298;2023-02-28T01:49:37;100385.88;;;0.72;64.21
43503;BME280;29098;48.184;16.298;2023-02-28T01:52:02;100384.22;;;0.71;63.86
43503;BME280;29098;48.184;16.298;2023-02-28T01:54:31;100379.13;;;0.69;63.91
43503;BME280;29098;48.184;16.298;2023-02-28T01:59:30;100382.56;;;0.70;63.63
43503;BME280;29098;48.184;16.298;2023-02-28T02:01:57;100381.72;;;0.69;63.54
43503;BME280;29098;48.184;16.298;2023-02-28T02:04:23;100375.56;;;0.56;63.91
43503;BME280;29098;48.184;16.298;2023-02-28T02:06:51;100381.50;;;0.58;63.72
43503;BME280;29098;48.184;16.298;2023-02-28T02:09:17;100383.00;;;0.62;63.73
43503;BME280;29098;48.184;16.298;2023-02-28T02:11:43;100376.97;;;0.61;64.36
43503;BME280;29098;48.184;16.298;2023-02-28T02:19:34;100385.78;;;0.59;64.14
43503;BME280;29098;48.184;16.298;2023-02-28T02:27:32;100383.47;;;0.54;64.25
43503;BME280;29098;48.184;16.298;2023-02-28T02:40:59;100380.00;;;0.39;64.81
43503;BME280;29098;48.184;16.298;2023-02-28T02:43:48;100375.19;;;0.47;64.82
43503;BME280;29098;48.184;16.298;2023-02-28T02:46:26;100377.72;;;0.49;64.68
43503;BME280;29098;48.184;16.298;2023-02-28T02:48:54;100377.22;;;0.42;65.22
43503;BME280;29098;48.184;16.298;2023-02-28T02:51:21;100373.72;;;0.43;65.91
43503;BME280;29098;48.184;16.298;2023-02-28T02:53:49;100374.25;;;0.34;65.87
43503;BME280;29098;48.184;16.298;2023-02-28T02:56:17;100374.63;;;0.42;65.68
43503;BME280;29098;48.184;16.298;2023-02-28T02:58:44;100377.22;;;0.42;65.89
43503;BME280;29098;48.184;16.298;2023-02-28T03:01:14;100373.16;;;0.38;66.00
43503;BME280;29098;48.184;16.298;2023-02-28T03:03:41;100376.41;;;0.42;65.64
43503;BME280;29098;48.184;16.298;2023-02-28T03:06:06;100372.22;;;0.39;65.67
43503;BME280;29098;48.184;16.298;2023-02-28T03:08:35;100385.13;;;0.40;65.59
43503;BME280;29098;48.184;16.298;2023-02-28T03:11:05;100376.94;;;0.32;66.24
43503;BME280;29098;48.184;16.298;2023-02-28T03:23:38;100376.66;;;0.22;67.12
43503;BME280;29098;48.184;16.298;2023-02-28T03:26:12;100377.97;;;0.30;66.86
43503;BME280;29098;48.184;16.298;2023-02-28T03:31:44;100373.66;;;0.14;67.19
43503;BME280;29098;48.184;16.298;2023-02-28T03:34:17;100369.78;;;0.21;67.31
43503;BME280;29098;48.184;16.298;2023-02-28T03:36:45;100370.69;;;0.06;67.54
43503;BME280;29098;48.184;16.298;2023-02-28T03:41:59;100365.84;;;-0.01;68.18
43503;BME280;29098;48.184;16.298;2023-02-28T03:44:30;100372.50;;;0.04;68.65
43503;BME280;29098;48.184;16.298;2023-02-28T03:47:02;100369.91;;;-0.11;68.74
43503;BME280;29098;48.184;16.298;2023-02-28T03:49:32;100368.47;;;-0.17;69.27
43503;BME280;29098;48.184;16.298;2023-02-28T03:52:01;100368.38;;;-0.15;69.40
43503;BME280;29098;48.184;16.298;2023-02-28T03:54:31;100372.63;;;-0.14;69.21
43503;BME280;29098;48.184;16.298;2023-02-28T03:56:59;100367.72;;;-0.19;69.49
43503;BME280;29098;48.184;16.298;2023-02-28T03:59:36;100349.19;;;-0.43;69.89
43503;BME280;29098;48.184;16.298;2023-02-28T04:02:02;100366.25;;;-0.23;69.88
43503;BME280;29098;48.184;16.298;2023-02-28T04:04:28;100361.81;;;-0.37;70.57
43503;BME280;29098;48.184;16.298;2023-02-28T04:06:53;100363.59;;;-0.37;70.43
43503;BME280;29098;48.184;16.298;2023-02-28T04:09:26;100370.69;;;-0.41;71.13
43503;BME280;29098;48.184;16.298;2023-02-28T04:11:53;100369.25;;;-0.31;70.87
43503;BME280;29098;48.184;16.298;2023-02-28T04:14:20;100373.03;;;-0.36;71.08
43503;BME280;29098;48.184;16.298;2023-02-28T04:16:46;100374.69;;;-0.35;71.02
43503;BME280;29098;48.184;16.298;2023-02-28T04:19:12;100374.63;;;-0.34;71.01
43503;BME280;29098;48.184;16.298;2023-02-28T04:21:39;100377.09;;;-0.32;71.22
43503;BME280;29098;48.184;16.298;2023-02-28T04:24:04;100373.75;;;-0.50;71.28
43503;BME280;29098;48.184;16.298;2023-02-28T04:26:30;100377.94;;;-0.32;71.02
43503;BME280;29098;48.184;16.298;2023-02-28T04:28:56;100383.94;;;-0.31;71.06
43503;BME280;29098;48.184;16.298;2023-02-28T04:31:21;100369.31;;;-0.32;71.64
43503;BME280;29098;48.184;16.298;2023-02-28T04:33:47;100383.53;;;-0.23;71.39
43503;BME280;29098;48.184;16.298;2023-02-28T04:36:12;100382.59;;;-0.22;71.74
43503;BME280;29098;48.184;16.298;2023-02-28T04:38:39;100383.53;;;-0.23;72.00
43503;BME280;29098;48.184;16.298;2023-02-28T04:41:04;100382.25;;;-0.16;71.38
43503;BME280;29098;48.184;16.298;2023-02-28T04:43:30;100389.97;;;-0.15;71.22
43503;BME280;29098;48.184;16.298;2023-02-28T04:45:56;100380.00;;;-0.22;71.13
43503;BME280;29098;48.184;16.298;2023-02-28T04:48:25;100382.53;;;-0.21;71.49
43503;BME280;29098;48.184;16.298;2023-02-28T04:50:52;100380.47;;;-0.30;71.84
43503;BME280;29098;48.184;16.298;2023-02-28T04:53:17;100383.13;;;-0.32;71.58
43503;BME280;29098;48.184;16.298;2023-02-28T04:55:43;100375.94;;;-0.26;71.67
43503;BME280;29098;48.184;16.298;2023-02-28T04:58:08;100373.44;;;-0.44;71.87
43503;BME280;29098;48.184;16.298;2023-02-28T05:00:33;100381.97;;;-0.42;72.03
43503;BME280;29098;48.184;16.298;2023-02-28T05:03:00;100376.28;;;-0.33;72.25
43503;BME280;29098;48.184;16.298;2023-02-28T05:05:27;100380.53;;;-0.32;72.51
43503;BME280;29098;48.184;16.298;2023-02-28T05:07:53;100378.59;;;-0.28;72.50
43503;BME280;29098;48.184;16.298;2023-02-28T05:10:20;100379.44;;;-0.28;72.94
43503;BME280;29098;48.184;16.298;2023-02-28T05:12:46;100383.13;;;-0.32;72.90
43503;BME280;29098;48.184;16.298;2023-02-28T05:15:13;100385.63;;;-0.30;72.43
43503;BME280;29098;48.184;16.298;2023-02-28T05:17:39;100380.63;;;-0.33;72.60
43503;BME280;29098;48.184;16.298;2023-02-28T05:20:04;100381.13;;;-0.26;72.79
43503;BME280;29098;48.184;16.298;2023-02-28T05:22:30;100381.78;;;-0.39;73.01
43503;BME280;29098;48.184;16.298;2023-02-28T05:24:55;100375.75;;;-0.39;72.77
43503;BME280;29098;48.184;16.298;2023-02-28T05:27:20;100376.53;;;-0.37;73.31
43503;BME280;29098;48.184;16.298;2023-02-28T05:29:46;100378.88;;;-0.49;73.53
43503;BME280;29098;48.184;16.298;2023-02-28T05:32:11;100384.50;;;-0.57;73.28
43503;BME280;29098;48.184;16.298;2023-02-28T05:34:37;100382.63;;;-0.54;73.57
43503;BME280;29098;48.184;16.298;2023-02-28T05:37:03;100386.66;;;-0.65;74.76
43503;BME280;29098;48.184;16.298;2023-02-28T05:39:29;100391.66;;;-0.62;74.12
43503;BME280;29098;48.184;16.298;2023-02-28T05:41:54;100389.66;;;-0.57;74.38
43503;BME280;29098;48.184;16.298;2023-02-28T05:44:19;100399.00;;;-0.54;74.39
43503;BME280;29098;48.184;16.298;2023-02-28T05:46:45;100397.59;;;-0.60;74.63
43503;BME280;29098;48.184;16.298;2023-02-28T05:49:10;100406.34;;;-0.62;75.09
43503;BME280;29098;48.184;16.298;2023-02-28T05:51:37;100403.09;;;-0.66;75.09
43503;BME280;29098;48.184;16.298;2023-02-28T05:54:04;100408.28;;;-0.66;75.30
43503;BME280;29098;48.184;16.298;2023-02-28T05:56:30;100407.19;;;-0.62;75.36
43503;BME280;29098;48.184;16.298;2023-02-28T05:58:55;100405.34;;;-0.60;75.29
43503;BME280;29098;48.184;16.298;2023-02-28T06:01:23;100410.81;;;-0.48;75.30
43503;BME280;29098;48.184;16.298;2023-02-28T06:03:48;100411.47;;;-0.45;74.91
43503;BME280;29098;48.184;16.298;2023-02-28T06:06:13;100407.38;;;-0.33;74.88
43503;BME280;29098;48.184;16.298;2023-02-28T06:08:39;100418.81;;;-0.37;75.46
43503;BME280;29098;48.184;16.298;2023-02-28T06:11:04;100423.66;;;-0.31;75.29
43503;BME280;29098;48.184;16.298;2023-02-28T06:13:30;100418.28;;;-0.28;75.05
43503;BME280;29098;48.184;16.298;2023-02-28T06:15:55;100413.19;;;-0.13;74.72
43503;BME280;29098;48.184;16.298;2023-02-28T06:18:20;100424.47;;;-0.14;74.50
43503;BME280;29098;48.184;16.298;2023-02-28T06:20:54;100426.41;;;-0.18;74.89
43503;BME280;29098;48.184;16.298;2023-02-28T06:23:20;100426.91;;;-0.11;75.35
43503;BME280;29098;48.184;16.298;2023-02-28T06:25:46;100433.44;;;-0.04;74.84
43503;BME280;29098;48.184;16.298;2023-02-28T06:28:11;100426.06;;;0.05;74.68
43503;BME280;29098;48.184;16.298;2023-02-28T06:30:37;100432.78;;;0.07;74.44
43503;BME280;29098;48.184;16.298;2023-02-28T06:33:03;100427.53;;;0.09;73.96
43503;BME280;29098;48.184;16.298;2023-02-28T06:35:28;100435.84;;;-0.01;74.97
43503;BME280;29098;48.184;16.298;2023-02-28T06:37:54;100446.94;;;0.02;74.85
43503;BME280;29098;48.184;16.298;2023-02-28T06:40:19;100444.75;;;0.10;74.45
43503;BME280;29098;48.184;16.298;2023-02-28T06:42:45;100441.44;;;0.08;74.73
43503;BME280;29098;48.184;16.298;2023-02-28T06:45:10;100443.75;;;0.12;74.35
43503;BME280;29098;48.184;16.298;2023-02-28T06:47:37;100446.75;;;0.21;74.25
43503;BME280;29098;48.184;16.298;2023-02-28T06:50:03;100450.59;;;0.30;73.41
43503;BME280;29098;48.184;16.298;2023-02-28T06:52:28;100455.84;;;0.28;73.63
43503;BME280;29098;48.184;16.298;2023-02-28T06:54:53;100453.53;;;0.07;74.44
43503;BME280;29098;48.184;16.298;2023-02-28T06:57:28;100459.09;;;0.32;74.51
43503;BME280;29098;48.184;16.298;2023-02-28T06:59:55;100451.72;;;0.40;74.01
43503;BME280;29098;48.184;16.298;2023-02-28T07:02:21;100455.81;;;0.44;73.37
43503;BME280;29098;48.184;16.298;2023-02-28T07:04:46;100447.16;;;0.60;72.38
43503;BME280;29098;48.184;16.298;2023-02-28T07:07:11;100451.13;;;0.65;71.71
43503;BME280;29098;48.184;16.298;2023-02-28T07:09:37;100447.84;;;0.47;72.35
43503;BME280;29098;48.184;16.298;2023-02-28T07:12:02;100445.47;;;0.59;72.05
43503;BME280;29098;48.184;16.298;2023-02-28T07:14:28;100447.50;;;0.53;71.31
43503;BME280;29098;48.184;16.298;2023-02-28T07:16:53;100449.63;;;0.61;70.93
43503;BME280;29098;48.184;16.298;2023-02-28T07:19:18;100452.38;;;0.74;69.99
43503;BME280;29098;48.184;16.298;2023-02-28T07:21:44;100454.09;;;0.59;70.26
43503;BME280;29098;48.184;16.298;2023-02-28T07:24:10;100463.25;;;0.65;69.98
43503;BME280;29098;48.184;16.298;2023-02-28T07:26:35;100460.84;;;0.62;69.85
43503;BME280;29098;48.184;16.298;2023-02-28T07:29:01;100464.31;;;0.62;70.00
43503;BME280;29098;48.184;16.298;2023-02-28T07:31:27;100462.59;;;0.61;74.37
43503;BME280;29098;48.184;16.298;2023-02-28T07:33:52;100461.97;;;0.72;72.23
43503;BME280;29098;48.184;16.298;2023-02-28T07:36:19;100465.34;;;1.03;70.37
43503;BME280;29098;48.184;16.298;2023-02-28T07:38:45;100467.75;;;0.92;69.43
43503;BME280;29098;48.184;16.298;2023-02-28T07:41:13;100474.78;;;0.75;70.48
43503;BME280;29098;48.184;16.298;2023-02-28T07:43:38;100469.97;;;0.84;69.86
43503;BME280;29098;48.184;16.298;2023-02-28T07:46:04;100480.16;;;0.87;69.39
43503;BME280;29098;48.184;16.298;2023-02-28T07:48:30;100484.97;;;0.78;69.45
43503;BME280;29098;48.184;16.298;2023-02-28T07:50:56;100477.78;;;0.84;69.00
43503;BME280;29098;48.184;16.298;2023-02-28T07:53:21;100478.88;;;0.79;69.29
43503;BME280;29098;48.184;16.298;2023-02-28T07:55:47;100485.94;;;0.92;69.95
43503;BME280;29098;48.184;16.298;2023-02-28T07:58:13;100475.34;;;0.95;70.16
43503;BME280;29098;48.184;16.298;2023-02-28T08:00:38;100483.25;;;0.93;69.62
43503;BME280;29098;48.184;16.298;2023-02-28T08:03:03;100481.88;;;1.17;69.46
43503;BME280;29098;48.184;16.298;2023-02-28T08:05:29;100490.78;;;1.27;69.70
43503;BME280;29098;48.184;16.298;2023-02-28T08:07:55;100486.78;;;1.36;68.40
43503;BME280;29098;48.184;16.298;2023-02-28T08:10:20;100497.91;;;1.53;67.38
43503;BME280;29098;48.184;16.298;2023-02-28T08:12:45;100488.81;;;1.31;67.90
43503;BME280;29098;48.184;16.298;2023-02-28T08:15:11;100492.91;;;1.49;68.08
43503;BME280;29098;48.184;16.298;2023-02-28T08:17:36;100478.25;;;1.34;68.65
43503;BME280;29098;48.184;16.298;2023-02-28T08:20:01;100478.91;;;1.38;69.16
43503;BME280;29098;48.184;16.298;2023-02-28T08:22:28;100479.63;;;1.54;68.79
43503;BME280;29098;48.184;16.298;2023-02-28T08:24:54;100483.31;;;1.64;68.73
43503;BME280;29098;48.184;16.298;2023-02-28T08:27:19;100483.28;;;1.79;68.36
43503;BME280;29098;48.184;16.298;2023-02-28T08:29:44;100486.81;;;1.78;67.99
43503;BME280;29098;48.184;16.298;2023-02-28T08:32:10;100487.34;;;1.98;67.01
43503;BME280;29098;48.184;16.298;2023-02-28T08:34:35;100478.00;;;2.08;66.40
43503;BME280;29098;48.184;16.298;2023-02-28T08:37:00;100487.53;;;1.95;66.50
43503;BME280;29098;48.184;16.298;2023-02-28T08:39:26;100484.63;;;2.27;66.06
43503;BME280;29098;48.184;16.298;2023-02-28T08:41:51;100493.19;;;2.29;65.81
43503;BME280;29098;48.184;16.298;2023-02-28T08:44:16;100487.84;;;2.30;65.20
43503;BME280;29098;48.184;16.298;2023-02-28T08:46:42;100486.44;;;2.39;64.52
43503;BME280;29098;48.184;16.298;2023-02-28T08:49:09;100488.97;;;2.54;64.08
43503;BME280;29098;48.184;16.298;2023-02-28T08:51:35;100495.22;;;2.64;64.42
43503;BME280;29098;48.184;16.298;2023-02-28T08:54:00;100498.69;;;2.78;64.82
43503;BME280;29098;48.184;16.298;2023-02-28T08:56:27;100499.00;;;2.99;63.57
43503;BME280;29098;48.184;16.298;2023-02-28T08:58:53;100500.25;;;3.06;63.75
43503;BME280;29098;48.184;16.298;2023-02-28T09:01:29;100495.19;;;3.05;62.40
43503;BME280;29098;48.184;16.298;2023-02-28T09:03:55;100500.03;;;2.96;63.61
43503;BME280;29098;48.184;16.298;2023-02-28T09:06:21;100495.25;;;3.16;63.78
43503;BME280;29098;48.184;16.298;2023-02-28T09:08:47;100497.22;;;3.38;63.16
43503;BME280;29098;48.184;16.298;2023-02-28T09:11:12;100491.25;;;3.49;63.07
43503;BME280;29098;48.184;16.298;2023-02-28T09:13:39;100494.97;;;3.71;61.76
43503;BME280;29098;48.184;16.298;2023-02-28T09:16:05;100493.72;;;3.64;61.15
43503;BME280;29098;48.184;16.298;2023-02-28T09:18:31;100496.00;;;3.68;60.52
43503;BME280;29098;48.184;16.298;2023-02-28T09:20:56;100494.53;;;3.77;60.06
43503;BME280;29098;48.184;16.298;2023-02-28T09:23:22;100493.81;;;3.75;60.06
43503;BME280;29098;48.184;16.298;2023-02-28T09:25:49;100490.94;;;3.91;59.64
43503;BME280;29098;48.184;16.298;2023-02-28T09:28:15;100492.03;;;3.76;59.60
43503;BME280;29098;48.184;16.298;2023-02-28T09:30:41;100492.34;;;3.71;61.15
43503;BME280;29098;48.184;16.298;2023-02-28T09:33:07;100498.28;;;4.10;60.24
43503;BME280;29098;48.184;16.298;2023-02-28T09:35:33;100492.56;;;4.05;60.53
43503;BME280;29098;48.184;16.298;2023-02-28T09:37:58;100498.13;;;4.01;59.92
43503;BME280;29098;48.184;16.298;2023-02-28T09:40:24;100501.00;;;3.84;60.30
43503;BME280;29098;48.184;16.298;2023-02-28T09:42:51;100499.31;;;4.08;60.69
43503;BME280;29098;48.184;16.298;2023-02-28T09:47:46;100502.19;;;4.41;59.54
43503;BME280;29098;48.184;16.298;2023-02-28T09:50:18;100507.06;;;4.34;60.16
43503;BME280;29098;48.184;16.298;2023-02-28T09:52:45;100495.41;;;4.62;59.89
43503;BME280;29098;48.184;16.298;2023-02-28T09:57:40;100500.00;;;5.06;57.96
43503;BME280;29098;48.184;16.298;2023-02-28T10:00:19;100507.59;;;4.98;58.83
43503;BME280;29098;48.184;16.298;2023-02-28T10:05:29;100507.50;;;4.63;57.68
43503;BME280;29098;48.184;16.298;2023-02-28T10:10:39;100506.22;;;4.33;58.16
43503;BME280;29098;48.184;16.298;2023-02-28T10:13:16;100506.34;;;4.07;59.00
43503;BME280;29098;48.184;16.298;2023-02-28T10:15:43;100504.50;;;3.96;60.25
43503;BME280;29098;48.184;16.298;2023-02-28T10:18:11;100502.25;;;4.03;60.81
43503;BME280;29098;48.184;16.298;2023-02-28T10:20:38;100510.09;;;4.03;61.21
43503;BME280;29098;48.184;16.298;2023-02-28T10:25:34;100490.72;;;4.43;61.24
43503;BME280;29098;48.184;16.298;2023-02-28T10:30:34;100482.19;;;5.00;60.15
43503;BME280;29098;48.184;16.298;2023-02-28T10:33:00;100486.94;;;5.29;58.91
43503;BME280;29098;48.184;16.298;2023-02-28T10:35:25;100487.75;;;5.52;59.62
43503;BME280;29098;48.184;16.298;2023-02-28T10:37:57;100487.84;;;5.85;58.74
43503;BME280;29098;48.184;16.298;2023-02-28T10:43:02;100470.25;;;6.20;56.61
43503;BME280;29098;48.184;16.298;2023-02-28T10:45:31;100476.75;;;6.37;55.21
43503;BME280;29098;48.184;16.298;2023-02-28T10:47:58;100471.22;;;6.51;54.66
43503;BME280;29098;48.184;16.298;2023-02-28T10:50:28;100472.59;;;6.55;54.85
43503;BME280;29098;48.184;16.298;2023-02-28T10:52:53;100471.38;;;6.38;54.12
43503;BME280;29098;48.184;16.298;2023-02-28T10:55:21;100469.97;;;6.55;54.43
43503;BME280;29098;48.184;16.298;2023-02-28T10:57:47;100473.75;;;6.63;53.41
43503;BME280;29098;48.184;16.298;2023-02-28T11:00:15;100468.31;;;6.54;54.10
43503;BME280;29098;48.184;16.298;2023-02-28T11:02:41;100460.38;;;6.66;52.72
43503;BME280;29098;48.184;16.298;2023-02-28T11:05:27;100462.19;;;6.65;52.71
43503;BME280;29098;48.184;16.298;2023-02-28T11:07:53;100456.00;;;6.45;52.59
43503;BME280;29098;48.184;16.298;2023-02-28T11:10:20;100454.25;;;6.34;53.91
43503;BME280;29098;48.184;16.298;2023-02-28T11:12:46;100456.94;;;6.44;53.42
43503;BME280;29098;48.184;16.298;2023-02-28T11:15:24;100463.22;;;6.74;52.39
43503;BME280;29098;48.184;16.298;2023-02-28T11:17:54;100456.56;;;6.70;52.16
43503;BME280;29098;48.184;16.298;2023-02-28T11:20:21;100444.94;;;6.63;52.12
43503;BME280;29098;48.184;16.298;2023-02-28T11:22:48;100441.53;;;7.34;52.58
43503;BME280;29098;48.184;16.298;2023-02-28T11:25:37;100440.41;;;8.07;52.12
43503;BME280;29098;48.184;16.298;2023-02-28T11:28:01;100428.50;;;7.84;51.45
43503;BME280;29098;48.184;16.298;2023-02-28T11:30:33;100432.78;;;8.44;51.56
43503;BME280;29098;48.184;16.298;2023-02-28T11:33:00;100424.91;;;8.54;49.63
43503;BME280;29098;48.184;16.298;2023-02-28T11:35:33;100428.66;;;8.02;48.67
43503;BME280;29098;48.184;16.298;2023-02-28T11:38:01;100439.00;;;8.23;48.71
43503;BME280;29098;48.184;16.298;2023-02-28T11:40:31;100434.03;;;8.00;46.75
43503;BME280;29098;48.184;16.298;2023-02-28T11:43:20;100427.63;;;7.44;47.76
43503;BME280;29098;48.184;16.298;2023-02-28T12:06:17;100411.50;;;7.07;50.33
43503;BME280;29098;48.184;16.298;2023-02-28T12:11:11;100412.06;;;7.11;50.47
43503;BME280;29098;48.184;16.298;2023-02-28T12:13:53;100407.69;;;7.31;50.27
43503;BME280;29098;48.184;16.298;2023-02-28T12:24:01;100392.25;;;8.46;47.08
43503;BME280;29098;48.184;16.298;2023-02-28T12:26:47;100390.88;;;9.46;44.89
43503;BME280;29098;48.184;16.298;2023-02-28T12:29:25;100387.13;;;8.93;43.58
43503;BME280;29098;48.184;16.298;2023-02-28T12:34:21;100375.91;;;10.01;43.67
43503;BME280;29098;48.184;16.298;2023-02-28T12:36:49;100373.50;;;10.08;42.65
43503;BME280;29098;48.184;16.298;2023-02-28T12:39:18;100370.03;;;10.25;41.36
43503;BME280;29098;48.184;16.298;2023-02-28T12:41:46;100380.72;;;10.77;40.98
43503;BME280;29098;48.184;16.298;2023-02-28T12:46:51;100368.56;;;10.31;40.80
43503;BME280;29098;48.184;16.298;2023-02-28T12:51:51;100368.00;;;9.28;40.83
43503;BME280;29098;48.184;16.298;2023-02-28T12:59:34;100356.38;;;7.98;43.79
43503;BME280;29098;48.184;16.298;2023-02-28T13:02:15;100367.19;;;7.75;44.69
43503;BME280;29098;48.184;16.298;2023-02-28T13:08:16;100358.97;;;8.07;42.91
43503;BME280;29098;48.184;16.298;2023-02-28T13:10:05;100353.47;;;7.61;43.61
43503;BME280;29098;48.184;16.298;2023-02-28T13:12:32;100366.47;;;7.63;44.27
43503;BME280;29098;48.184;16.298;2023-02-28T13:15:22;100352.75;;;8.08;44.30
43503;BME280;29098;48.184;16.298;2023-02-28T13:17:53;100355.53;;;9.30;41.00
43503;BME280;29098;48.184;16.298;2023-02-28T13:20:28;100353.31;;;10.69;39.09
43503;BME280;29098;48.184;16.298;2023-02-28T13:22:56;100344.97;;;11.34;37.66
43503;BME280;29098;48.184;16.298;2023-02-28T13:28:11;100340.09;;;12.14;36.02
43503;BME280;29098;48.184;16.298;2023-02-28T13:35:50;100343.47;;;12.96;34.37
43503;BME280;29098;48.184;16.298;2023-02-28T13:38:32;100331.78;;;12.82;34.25
43503;BME280;29098;48.184;16.298;2023-02-28T13:41:29;100350.31;;;13.22;34.23
43503;BME280;29098;48.184;16.298;2023-02-28T13:46:24;100352.22;;;13.36;32.32
43503;BME280;29098;48.184;16.298;2023-02-28T13:48:49;100345.06;;;13.68;31.01
43503;BME280;29098;48.184;16.298;2023-02-28T13:54:06;100348.91;;;13.02;32.92
43503;BME280;29098;48.184;16.298;2023-02-28T13:56:44;100340.69;;;13.21;32.31
43503;BME280;29098;48.184;16.298;2023-02-28T13:59:23;100346.13;;;13.97;31.41
43503;BME280;29098;48.184;16.298;2023-02-28T14:06:54;100343.19;;;14.31;30.48
43503;BME280;29098;48.184;16.298;2023-02-28T14:09:33;100341.16;;;13.79;30.71
43503;BME280;29098;48.184;16.298;2023-02-28T14:17:12;100346.06;;;13.67;30.69
43503;BME280;29098;48.184;16.298;2023-02-28T14:19:39;100342.56;;;13.67;31.27
43503;BME280;29098;48.184;16.298;2023-02-28T14:32:47;100329.94;;;11.26;34.15
43503;BME280;29098;48.184;16.298;2023-02-28T14:37:41;100321.69;;;10.69;36.33
43503;BME280;29098;48.184;16.298;2023-02-28T14:40:14;100314.06;;;10.05;36.59
43503;BME280;29098;48.184;16.298;2023-02-28T14:42:45;100322.41;;;10.88;34.51
43503;BME280;29098;48.184;16.298;2023-02-28T14:45:18;100320.28;;;10.04;36.85
43503;BME280;29098;48.184;16.298;2023-02-28T14:47:44;100323.78;;;11.01;35.28
43503;BME280;29098;48.184;16.298;2023-02-28T14:50:19;100319.34;;;10.66;35.96
43503;BME280;29098;48.184;16.298;2023-02-28T14:52:45;100325.53;;;10.92;35.67
43503;BME280;29098;48.184;16.298;2023-02-28T14:55:15;100326.19;;;10.86;35.17
43503;BME280;29098;48.184;16.298;2023-02-28T14:57:50;100315.38;;;11.14;34.55
43503;BME280;29098;48.184;16.298;2023-02-28T15:00:20;100322.13;;;11.00;35.20
43503;BME280;29098;48.184;16.298;2023-02-28T15:02:46;100327.50;;;11.49;35.09
43503;BME280;29098;48.184;16.298;2023-02-28T15:07:37;100329.13;;;10.21;36.15
43503;BME280;29098;48.184;16.298;2023-02-28T15:10:10;100323.03;;;10.47;36.36
43503;BME280;29098;48.184;16.298;2023-02-28T15:12:36;100322.44;;;11.05;35.56
43503;BME280;29098;48.184;16.298;2023-02-28T15:15:02;100323.81;;;10.66;35.89